Time,TemperatureF,DewpointF,PressureIn,WindDirection,WindDirectionDegrees,WindSpeedMPH,WindSpeedGustMPH,Humidity,HourlyPrecipIn,Conditions,Clouds,dailyrainin,SoftwareType,DateUTC
2013-05-15 00:02:00,54.7,22.2,17.72,North,357,0.0,0.0,28,0.00,,,0.00,WeatherTracker,2013-05-15 07:02:00,
2013-05-15 00:11:00,54.5,22.1,17.72,North,357,0.0,0.0,28,0.00,,,0.00,WeatherTracker,2013-05-15 07:11:00,
2013-05-15 00:21:00,54.1,21.8,17.72,North,8,0.0,0.0,28,0.00,,,0.00,WeatherTracker,2013-05-15 07:21:00,
2013-05-15 00:31:00,54.0,21.6,17.72,North,8,0.0,0.0,28,0.00,,,0.00,WeatherTracker,2013-05-15 07:31:00,
2013-05-15 00:36:00,54.0,21.6,17.72,North,8,0.0,0.0,28,0.00,,,0.00,WeatherTracker,2013-05-15 07:36:00,
2013-05-15 00:46:00,53.6,21.3,17.72,North,8,0.0,0.0,28,0.00,,,0.00,WeatherTracker,2013-05-15 07:46:00,
2013-05-15 00:56:00,53.6,21.3,17.72,NE,46,0.0,0.0,28,0.00,,,0.00,WeatherTracker,2013-05-15 07:56:00,
2013-05-15 01:06:00,53.4,21.1,17.72,NE,39,0.0,0.0,28,0.00,,,0.00,WeatherTracker,2013-05-15 08:06:00,
2013-05-15 01:16:00,53.1,20.8,17.72,NNE,20,0.0,0.0,28,0.00,,,0.00,WeatherTracker,2013-05-15 08:16:00,
2013-05-15 01:21:00,53.1,20.8,17.72,NNE,20,0.0,0.0,28,0.00,,,0.00,WeatherTracker,2013-05-15 08:21:00,
2013-05-15 01:26:00,52.9,20.7,17.72,NNE,20,0.0,0.0,28,0.00,,,0.00,WeatherTracker,2013-05-15 08:26:00,
2013-05-15 01:31:00,52.7,20.5,17.72,NNE,20,0.0,0.0,28,0.00,,,0.00,WeatherTracker,2013-05-15 08:31:00,
2013-05-15 01:41:00,52.7,20.5,17.72,NNE,20,0.0,0.0,28,0.00,,,0.00,WeatherTracker,2013-05-15 08:41:00,
2013-05-15 01:46:00,52.5,20.4,17.72,NNE,20,0.0,0.0,28,0.00,,,0.00,WeatherTracker,2013-05-15 08:46:00,
2013-05-15 01:56:00,52.5,20.4,17.72,NNE,20,0.0,0.0,28,0.00,,,0.00,WeatherTracker,2013-05-15 08:56:00,
2013-05-15 02:06:00,52.5,20.4,17.72,NNE,20,0.0,0.0,28,0.00,,,0.00,WeatherTracker,2013-05-15 09:06:00,
2013-05-15 02:11:00,52.5,20.4,17.72,ESE,110,0.0,0.0,28,0.00,,,0.00,WeatherTracker,2013-05-15 09:11:00,
2013-05-15 02:16:00,52.5,20.4,17.72,ESE,110,0.0,0.0,28,0.00,,,0.00,WeatherTracker,2013-05-15 09:16:00,
2013-05-15 02:21:00,52.3,20.2,17.72,ESE,110,0.0,0.0,28,0.00,,,0.00,WeatherTracker,2013-05-15 09:21:00,
2013-05-15 02:31:00,52.2,20.1,17.72,ESE,109,0.0,0.0,28,0.00,,,0.00,WeatherTracker,2013-05-15 09:31:00,
2013-05-15 02:41:00,52.3,20.2,17.72,ESE,109,0.0,0.0,28,0.00,,,0.00,WeatherTracker,2013-05-15 09:41:00,
2013-05-15 02:51:00,52.2,20.1,17.72,ESE,109,0.0,0.0,28,0.00,,,0.00,WeatherTracker,2013-05-15 09:51:00,
2013-05-15 02:56:00,52.0,19.9,17.72,ESE,109,0.0,0.0,28,0.00,,,0.00,WeatherTracker,2013-05-15 09:56:00,
2013-05-15 03:06:00,51.6,21.2,17.72,ESE,109,0.0,0.0,30,0.00,,,0.00,WeatherTracker,2013-05-15 10:06:00,
2013-05-15 03:16:00,50.7,20.4,17.72,South,172,0.0,0.0,30,0.00,,,0.00,WeatherTracker,2013-05-15 10:16:00,
2013-05-15 03:26:00,49.8,20.4,17.72,South,172,0.0,0.0,31,0.00,,,0.00,WeatherTracker,2013-05-15 10:26:00,
2013-05-15 03:31:00,49.6,20.3,17.72,South,175,0.0,0.0,31,0.00,,,0.00,WeatherTracker,2013-05-15 10:31:00,
2013-05-15 03:41:00,48.9,20.4,17.72,South,179,0.0,0.0,32,0.00,,,0.00,WeatherTracker,2013-05-15 10:41:00,
2013-05-15 03:46:00,48.7,20.2,17.72,South,179,0.0,0.0,32,0.00,,,0.00,WeatherTracker,2013-05-15 10:46:00,
2013-05-15 03:51:00,48.4,19.9,17.72,South,179,0.0,0.0,32,0.00,,,0.00,WeatherTracker,2013-05-15 10:51:00,
2013-05-15 04:06:00,47.5,19.8,17.72,South,179,0.0,0.0,33,0.00,,,0.00,WeatherTracker,2013-05-15 11:06:00,
2013-05-15 04:16:00,47.3,20.4,17.72,South,179,0.0,0.0,34,0.00,,,0.00,WeatherTracker,2013-05-15 11:16:00,
2013-05-15 04:26:00,47.1,20.9,17.72,South,179,0.0,0.0,35,0.00,,,0.00,WeatherTracker,2013-05-15 11:26:00,
2013-05-15 04:31:00,46.8,20.6,17.72,South,179,0.0,0.0,35,0.00,,,0.00,WeatherTracker,2013-05-15 11:31:00,
2013-05-15 04:36:00,46.6,20.4,17.72,South,179,0.0,0.0,35,0.00,,,0.00,WeatherTracker,2013-05-15 11:36:00,
2013-05-15 04:46:00,46.2,21.4,17.72,South,179,0.0,0.0,37,0.00,,,0.00,WeatherTracker,2013-05-15 11:46:00,
2013-05-15 04:56:00,46.0,20.6,17.72,South,179,0.0,0.0,36,0.00,,,0.00,WeatherTracker,2013-05-15 11:56:00,
2013-05-15 05:01:00,46.0,21.2,17.72,South,179,0.0,0.0,37,0.00,,,0.00,WeatherTracker,2013-05-15 12:01:00,
2013-05-15 05:11:00,45.9,21.1,17.72,South,180,0.0,0.0,37,0.00,,,0.00,WeatherTracker,2013-05-15 12:11:00,
2013-05-15 05:21:00,45.3,21.2,17.72,South,179,0.0,0.0,38,0.00,,,0.00,WeatherTracker,2013-05-15 12:21:00,
2013-05-15 05:26:00,45.1,21.1,17.72,South,179,0.0,0.0,38,0.00,,,0.00,WeatherTracker,2013-05-15 12:26:00,
2013-05-15 05:36:00,44.8,20.7,17.72,South,179,0.0,0.0,38,0.00,,,0.00,WeatherTracker,2013-05-15 12:36:00,
2013-05-15 05:46:00,44.1,20.7,17.72,South,179,0.0,0.0,39,0.00,,,0.00,WeatherTracker,2013-05-15 12:46:00,
2013-05-15 05:51:00,44.1,20.7,17.72,South,179,0.0,0.0,39,0.00,,,0.00,WeatherTracker,2013-05-15 12:51:00,
2013-05-15 06:01:00,44.6,21.2,17.72,South,180,0.0,0.0,39,0.00,,,0.00,WeatherTracker,2013-05-15 13:01:00,
2013-05-15 06:11:00,45.5,22.0,17.72,South,179,0.0,0.0,39,0.00,,,0.00,WeatherTracker,2013-05-15 13:11:00,
2013-05-15 06:21:00,47.5,22.5,17.72,South,179,0.0,0.0,37,0.00,,,0.00,WeatherTracker,2013-05-15 13:21:00,
2013-05-15 06:26:00,47.7,23.3,17.72,South,180,0.0,0.0,38,0.00,,,0.00,WeatherTracker,2013-05-15 13:26:00,
2013-05-15 06:31:00,47.7,23.3,17.72,South,179,0.0,0.0,38,0.00,,,0.00,WeatherTracker,2013-05-15 13:31:00,
2013-05-15 06:36:00,47.7,23.3,17.72,South,179,0.0,0.0,38,0.00,,,0.00,WeatherTracker,2013-05-15 13:36:00,
2013-05-15 06:46:00,48.2,23.8,17.72,South,180,0.0,0.0,38,0.00,,,0.00,WeatherTracker,2013-05-15 13:46:00,
2013-05-15 06:51:00,49.3,24.1,17.72,South,179,0.0,0.0,37,0.00,,,0.00,WeatherTracker,2013-05-15 13:51:00,
2013-05-15 06:56:00,50.2,24.9,17.72,South,180,0.0,0.0,37,0.00,,,0.00,WeatherTracker,2013-05-15 13:56:00,
2013-05-15 07:01:00,50.5,25.2,17.72,South,179,0.0,0.0,37,0.00,,,0.00,WeatherTracker,2013-05-15 14:01:00,
2013-05-15 07:11:00,51.4,26.0,17.72,East,89,0.0,0.0,37,0.00,,,0.00,WeatherTracker,2013-05-15 14:11:00,
2013-05-15 07:21:00,53.1,26.8,17.72,ESE,105,0.0,0.0,36,0.00,,,0.00,WeatherTracker,2013-05-15 14:21:00,
2013-05-15 07:36:00,56.7,23.9,17.72,SE,138,0.0,0.0,28,0.00,,,0.00,WeatherTracker,2013-05-15 14:36:00,
2013-05-15 08:01:00,60.4,23.5,17.72,SE,135,0.0,3.0,24,0.00,,,0.00,WeatherTracker,2013-05-15 15:01:00,
2013-05-15 08:11:00,61.2,20.9,17.72,SSE,152,2.0,3.0,21,0.00,,,0.00,WeatherTracker,2013-05-15 15:11:00,
2013-05-15 08:21:00,62.1,19.3,17.72,SSE,158,4.0,4.0,19,0.00,,,0.00,WeatherTracker,2013-05-15 15:21:00,
2013-05-15 08:31:00,63.1,16.2,17.72,SE,128,3.0,0.0,16,0.00,,,0.00,WeatherTracker,2013-05-15 15:31:00,
2013-05-15 08:41:00,64.2,17.1,17.72,SE,129,3.0,0.0,16,0.00,,,0.00,WeatherTracker,2013-05-15 15:41:00,
2013-05-15 08:51:00,64.9,12.9,17.72,ESE,111,3.0,5.0,13,0.00,,,0.00,WeatherTracker,2013-05-15 15:51:00,
2013-05-15 08:56:00,65.5,13.4,17.72,ESE,110,0.0,3.0,13,0.00,,,0.00,WeatherTracker,2013-05-15 15:56:00,
2013-05-15 09:11:00,66.7,17.6,17.72,SSE,157,0.0,3.0,15,0.00,,,0.00,WeatherTracker,2013-05-15 16:11:00,
2013-05-15 09:21:00,67.6,13.2,17.72,SE,135,4.0,4.0,12,0.00,,,0.00,WeatherTracker,2013-05-15 16:21:00,
2013-05-15 09:26:00,68.0,13.5,17.72,ESE,106,5.0,6.0,12,0.00,,,0.00,WeatherTracker,2013-05-15 16:26:00,
2013-05-15 09:36:00,68.7,14.1,17.72,East,95,3.0,0.0,12,0.00,,,0.00,WeatherTracker,2013-05-15 16:36:00,
2013-05-15 09:41:00,69.3,10.4,17.72,ESE,116,6.0,6.0,10,0.00,,,0.00,WeatherTracker,2013-05-15 16:41:00,
2013-05-15 09:51:00,70.2,8.7,17.72,ESE,116,5.0,8.0,9,0.00,,,0.00,WeatherTracker,2013-05-15 16:51:00,
2013-05-15 09:56:00,70.3,8.9,17.72,ESE,114,4.0,4.0,9,0.00,,,0.00,WeatherTracker,2013-05-15 16:56:00,
2013-05-15 10:06:00,70.9,9.3,17.72,East,84,4.0,4.0,9,0.00,,,0.00,WeatherTracker,2013-05-15 17:06:00,
2013-05-15 10:21:00,71.2,9.5,17.72,SSE,148,4.0,6.0,9,0.00,,,0.00,WeatherTracker,2013-05-15 17:21:00,
2013-05-15 10:26:00,71.6,9.8,17.72,SE,127,5.0,6.0,9,0.00,,,0.00,WeatherTracker,2013-05-15 17:26:00,
2013-05-15 10:31:00,71.4,9.7,17.72,East,88,4.0,6.0,9,0.00,,,0.00,WeatherTracker,2013-05-15 17:31:00,
2013-05-15 10:51:00,72.3,10.3,17.72,SE,133,3.0,3.0,9,0.00,,,0.00,WeatherTracker,2013-05-15 17:51:00,
2013-05-15 10:56:00,72.9,10.8,17.72,ENE,77,6.0,7.0,9,0.00,,,0.00,WeatherTracker,2013-05-15 17:56:00,
2013-05-15 11:11:00,73.0,10.9,17.72,SE,124,5.0,5.0,9,0.00,,,0.00,WeatherTracker,2013-05-15 18:11:00,
2013-05-15 11:21:00,73.0,10.9,17.72,ESE,118,5.0,5.0,9,0.00,,,0.00,WeatherTracker,2013-05-15 18:21:00,
2013-05-15 11:26:00,74.1,9.1,17.72,SE,126,3.0,8.0,8,0.00,,,0.00,WeatherTracker,2013-05-15 18:26:00,
2013-05-15 11:31:00,74.3,9.2,17.72,East,98,4.0,4.0,8,0.00,,,0.00,WeatherTracker,2013-05-15 18:31:00,
2013-05-15 11:41:00,75.0,9.7,17.72,ESE,118,4.0,6.0,8,0.00,,,0.00,WeatherTracker,2013-05-15 18:41:00,
2013-05-15 11:51:00,75.2,9.9,17.72,East,99,3.0,8.0,8,0.00,,,0.00,WeatherTracker,2013-05-15 18:51:00,
2013-05-15 12:01:00,75.6,10.1,17.72,NE,47,5.0,5.0,8,0.00,,,0.00,WeatherTracker,2013-05-15 19:01:00,
2013-05-15 12:11:00,75.6,10.1,17.72,ESE,115,4.0,5.0,8,0.00,,,0.00,WeatherTracker,2013-05-15 19:11:00,
2013-05-15 12:16:00,75.7,10.3,17.72,SSE,147,3.0,4.0,8,0.00,,,0.00,WeatherTracker,2013-05-15 19:16:00,
2013-05-15 12:26:00,75.4,10.0,17.72,ESE,122,4.0,4.0,8,0.00,,,0.00,WeatherTracker,2013-05-15 19:26:00,
2013-05-15 12:36:00,75.0,9.7,17.72,East,96,4.0,4.0,8,0.00,,,0.00,WeatherTracker,2013-05-15 19:36:00,
2013-05-15 12:46:00,75.2,9.9,17.72,ENE,72,4.0,0.0,8,0.00,,,0.00,WeatherTracker,2013-05-15 19:46:00,
2013-05-15 12:56:00,76.5,10.8,17.72,ESE,103,3.0,4.0,8,0.00,,,0.00,WeatherTracker,2013-05-15 19:56:00,
2013-05-15 13:06:00,76.1,10.5,17.72,ESE,110,3.0,5.0,8,0.00,,,0.00,WeatherTracker,2013-05-15 20:06:00,
2013-05-15 13:11:00,76.3,10.7,17.72,SE,125,4.0,7.0,8,0.00,,,0.00,WeatherTracker,2013-05-15 20:11:00,
2013-05-15 13:21:00,76.8,11.1,17.72,East,100,4.0,8.0,8,0.00,,,0.00,WeatherTracker,2013-05-15 20:21:00,
2013-05-15 13:31:00,76.1,10.5,17.72,NNE,32,5.0,5.0,8,0.00,,,0.00,WeatherTracker,2013-05-15 20:31:00,
2013-05-15 13:36:00,75.7,10.3,17.72,East,94,5.0,5.0,8,0.00,,,0.00,WeatherTracker,2013-05-15 20:36:00,
2013-05-15 13:41:00,75.2,9.9,17.72,SE,146,5.0,5.0,8,0.00,,,0.00,WeatherTracker,2013-05-15 20:41:00,
2013-05-15 13:51:00,74.7,9.5,17.72,SSE,155,4.0,0.0,8,0.00,,,0.00,WeatherTracker,2013-05-15 20:51:00,
2013-05-15 14:01:00,75.6,10.1,17.72,SE,132,3.0,6.0,8,0.00,,,0.00,WeatherTracker,2013-05-15 21:01:00,
2013-05-15 14:16:00,75.6,10.1,17.72,SE,133,4.0,5.0,8,0.00,,,0.00,WeatherTracker,2013-05-15 21:16:00,
2013-05-15 14:26:00,75.4,10.0,17.72,SSW,206,4.0,4.0,8,0.00,,,0.00,WeatherTracker,2013-05-15 21:26:00,
2013-05-15 14:31:00,75.2,9.9,17.72,East,95,0.0,3.0,8,0.00,,,0.00,WeatherTracker,2013-05-15 21:31:00,
2013-05-15 14:41:00,76.1,10.5,17.72,SW,219,0.0,4.0,8,0.00,,,0.00,WeatherTracker,2013-05-15 21:41:00,
2013-05-15 14:51:00,76.5,10.8,17.72,SE,137,5.0,5.0,8,0.00,,,0.00,WeatherTracker,2013-05-15 21:51:00,
2013-05-15 14:56:00,76.3,10.7,17.72,East,93,4.0,4.0,8,0.00,,,0.00,WeatherTracker,2013-05-15 21:56:00,
2013-05-15 15:06:00,75.4,10.0,17.72,SSE,148,4.0,8.0,8,0.00,,,0.00,WeatherTracker,2013-05-15 22:06:00,
2013-05-15 15:16:00,75.7,10.3,17.72,SW,231,5.0,0.0,8,0.00,,,0.00,WeatherTracker,2013-05-15 22:16:00,
2013-05-15 15:21:00,75.2,9.9,17.72,ESE,111,4.0,4.0,8,0.00,,,0.00,WeatherTracker,2013-05-15 22:21:00,
2013-05-15 15:31:00,74.5,9.3,17.72,ESE,118,3.0,5.0,8,0.00,,,0.00,WeatherTracker,2013-05-15 22:31:00,
2013-05-15 15:41:00,74.5,9.3,17.72,East,95,2.0,4.0,8,0.00,,,0.00,WeatherTracker,2013-05-15 22:41:00,
2013-05-15 15:51:00,73.6,8.7,17.72,NNW,341,4.0,0.0,8,0.00,,,0.00,WeatherTracker,2013-05-15 22:51:00,
2013-05-15 16:01:00,73.4,8.5,17.72,East,87,4.0,4.0,8,0.00,,,0.00,WeatherTracker,2013-05-15 23:01:00,
2013-05-15 16:16:00,73.2,11.0,17.72,NE,56,4.0,5.0,9,0.00,,,0.00,WeatherTracker,2013-05-15 23:16:00,
2013-05-15 16:31:00,72.3,10.3,17.72,East,98,2.0,8.0,9,0.00,,,0.00,WeatherTracker,2013-05-15 23:31:00,
2013-05-15 16:36:00,72.1,10.2,17.72,ESE,109,4.0,4.0,9,0.00,,,0.00,WeatherTracker,2013-05-15 23:36:00,
2013-05-15 16:46:00,71.6,9.8,17.72,East,99,3.0,0.0,9,0.00,,,0.00,WeatherTracker,2013-05-15 23:46:00,
2013-05-15 16:52:00,71.6,9.8,17.72,North,353,3.0,4.0,9,0.00,,,0.00,WeatherTracker,2013-05-15 23:52:00,
2013-05-15 17:01:00,71.2,9.5,17.72,SSE,148,3.0,4.0,9,0.00,,,0.00,WeatherTracker,2013-05-16 00:01:00,
2013-05-15 17:06:00,71.1,9.4,17.72,ENE,75,6.0,6.0,9,0.00,,,0.00,WeatherTracker,2013-05-16 00:06:00,
2013-05-15 17:16:00,70.3,8.9,17.72,East,88,3.0,3.0,9,0.00,,,0.00,WeatherTracker,2013-05-16 00:16:00,
2013-05-15 17:26:00,70.0,8.6,17.72,ESE,111,3.0,3.0,9,0.00,,,0.00,WeatherTracker,2013-05-16 00:26:00,
2013-05-15 17:31:00,69.8,8.4,17.72,ESE,120,3.0,4.0,9,0.00,,,0.00,WeatherTracker,2013-05-16 00:31:00,
2013-05-15 17:36:00,69.6,10.7,17.72,ESE,111,5.0,5.0,10,0.00,,,0.00,WeatherTracker,2013-05-16 00:36:00,
2013-05-15 17:46:00,69.3,10.4,17.72,ESE,123,3.0,5.0,10,0.00,,,0.00,WeatherTracker,2013-05-16 00:46:00,
2013-05-15 17:51:00,69.1,10.2,17.72,ESE,111,4.0,0.0,10,0.00,,,0.00,WeatherTracker,2013-05-16 00:51:00,
2013-05-15 18:01:00,68.7,10.0,17.72,SE,126,0.0,6.0,10,0.00,,,0.00,WeatherTracker,2013-05-16 01:01:00,
2013-05-15 18:11:00,68.2,9.6,17.72,SSE,160,0.0,0.0,10,0.00,,,0.00,WeatherTracker,2013-05-16 01:11:00,
2013-05-15 18:21:00,67.8,9.3,17.72,ENE,57,4.0,0.0,10,0.00,,,0.00,WeatherTracker,2013-05-16 01:21:00,
2013-05-15 18:36:00,67.3,8.9,17.72,East,94,0.0,5.0,10,0.00,,,0.00,WeatherTracker,2013-05-16 01:36:00,
2013-05-15 18:46:00,66.9,8.6,17.72,ESE,117,3.0,0.0,10,0.00,,,0.00,WeatherTracker,2013-05-16 01:46:00,
2013-05-15 18:51:00,66.7,8.5,17.72,SE,143,0.0,4.0,10,0.00,,,0.00,WeatherTracker,2013-05-16 01:51:00,
2013-05-15 19:01:00,66.2,8.0,17.72,East,92,2.0,2.0,10,0.00,,,0.00,WeatherTracker,2013-05-16 02:01:00,
2013-05-15 19:06:00,66.0,7.9,17.72,East,101,0.0,4.0,10,0.00,,,0.00,WeatherTracker,2013-05-16 02:06:00,
2013-05-15 19:11:00,65.8,7.8,17.72,SE,124,0.0,0.0,10,0.00,,,0.00,WeatherTracker,2013-05-16 02:11:00,
2013-05-15 19:16:00,65.7,7.6,17.72,East,101,2.0,0.0,10,0.00,,,0.00,WeatherTracker,2013-05-16 02:16:00,
2013-05-15 19:21:00,65.5,7.5,17.72,ENE,77,0.0,0.0,10,0.00,,,0.00,WeatherTracker,2013-05-16 02:21:00,
2013-05-15 19:36:00,64.8,6.9,17.72,SSE,152,0.0,4.0,10,0.00,,,0.00,WeatherTracker,2013-05-16 02:36:00,
2013-05-15 19:46:00,64.0,8.5,17.72,SE,138,0.0,0.0,11,0.00,,,0.00,WeatherTracker,2013-05-16 02:46:00,
2013-05-15 19:51:00,63.7,8.2,17.72,ESE,105,0.0,0.0,11,0.00,,,0.00,WeatherTracker,2013-05-16 02:51:00,
2013-05-15 19:56:00,63.1,7.8,17.72,ESE,105,0.0,0.0,11,0.00,,,0.00,WeatherTracker,2013-05-16 02:56:00,
2013-05-15 20:06:00,62.1,7.0,17.72,ESE,113,0.0,0.0,11,0.00,,,0.00,WeatherTracker,2013-05-16 03:06:00,
2013-05-15 20:16:00,61.3,6.4,17.72,NE,56,0.0,0.0,11,0.00,,,0.00,WeatherTracker,2013-05-16 03:16:00,
2013-05-15 20:21:00,61.0,6.1,17.72,ENE,57,0.0,0.0,11,0.00,,,0.00,WeatherTracker,2013-05-16 03:21:00,
2013-05-15 20:26:00,61.0,6.1,17.72,ENE,57,0.0,0.0,11,0.00,,,0.00,WeatherTracker,2013-05-16 03:26:00,
2013-05-15 20:31:00,60.6,7.8,17.72,ENE,57,0.0,0.0,12,0.00,,,0.00,WeatherTracker,2013-05-16 03:31:00,
2013-05-15 20:41:00,60.1,7.3,17.72,ENE,57,0.0,0.0,12,0.00,,,0.00,WeatherTracker,2013-05-16 03:41:00,
2013-05-15 20:51:00,59.4,6.8,17.72,ENE,57,0.0,0.0,12,0.00,,,0.00,WeatherTracker,2013-05-16 03:51:00,
2013-05-15 20:56:00,59.2,6.6,17.72,ENE,57,0.0,0.0,12,0.00,,,0.00,WeatherTracker,2013-05-16 03:56:00,
2013-05-15 21:01:00,58.8,6.3,17.72,ENE,57,0.0,0.0,12,0.00,,,0.00,WeatherTracker,2013-05-16 04:01:00,
2013-05-15 21:06:00,58.5,6.1,17.72,ENE,57,0.0,0.0,12,0.00,,,0.00,WeatherTracker,2013-05-16 04:06:00,
2013-05-15 21:11:00,57.7,5.5,17.72,ENE,57,0.0,0.0,12,0.00,,,0.00,WeatherTracker,2013-05-16 04:11:00,
2013-05-15 21:16:00,57.4,5.2,17.72,ENE,57,0.0,0.0,12,0.00,,,0.00,WeatherTracker,2013-05-16 04:16:00,
2013-05-15 21:26:00,55.9,0.2,17.72,ENE,57,0.0,0.0,10,0.00,,,0.00,WeatherTracker,2013-05-16 04:26:00,
2013-05-15 21:31:00,55.4,-0.2,17.72,ENE,57,0.0,0.0,10,0.00,,,0.00,WeatherTracker,2013-05-16 04:31:00,
2013-05-15 21:41:00,55.0,-0.5,17.72,NNE,18,0.0,0.0,10,0.00,,,0.00,WeatherTracker,2013-05-16 04:41:00,
2013-05-15 21:51:00,54.9,-0.7,17.72,NNE,18,0.0,0.0,10,0.00,,,0.00,WeatherTracker,2013-05-16 04:51:00,
2013-05-15 22:01:00,54.7,-0.8,17.72,NNE,18,0.0,0.0,10,0.00,,,0.00,WeatherTracker,2013-05-16 05:01:00,
2013-05-15 22:06:00,54.5,-0.9,17.72,NNE,18,0.0,0.0,10,0.00,,,0.00,WeatherTracker,2013-05-16 05:06:00,
2013-05-15 22:11:00,54.1,-1.2,17.72,NNE,18,0.0,0.0,10,0.00,,,0.00,WeatherTracker,2013-05-16 05:11:00,
2013-05-15 22:16:00,54.0,-1.3,17.72,NNE,18,0.0,0.0,10,0.00,,,0.00,WeatherTracker,2013-05-16 05:16:00,
2013-05-15 22:26:00,52.9,-0.2,17.72,NNE,18,0.0,0.0,11,0.00,,,0.00,WeatherTracker,2013-05-16 05:26:00,
2013-05-15 22:31:00,52.5,-0.4,17.72,NNE,18,0.0,0.0,11,0.00,,,0.00,WeatherTracker,2013-05-16 05:31:00,
2013-05-15 22:41:00,52.9,-0.2,17.72,NNE,18,0.0,0.0,11,0.00,,,0.00,WeatherTracker,2013-05-16 05:41:00,
2013-05-15 22:51:00,52.9,-0.2,17.72,NNE,15,0.0,0.0,11,0.00,,,0.00,WeatherTracker,2013-05-16 05:51:00,
2013-05-15 22:56:00,53.1,0.0,17.72,North,10,0.0,0.0,11,0.00,,,0.00,WeatherTracker,2013-05-16 05:56:00,
2013-05-15 23:01:00,53.1,0.0,17.72,North,8,0.0,0.0,11,0.00,,,0.00,WeatherTracker,2013-05-16 06:01:00,
2013-05-15 23:11:00,53.1,0.0,17.72,North,7,0.0,0.0,11,0.00,,,0.00,WeatherTracker,2013-05-16 06:11:00,
2013-05-15 23:21:00,52.7,-0.3,17.72,North,4,0.0,0.0,11,0.00,,,0.00,WeatherTracker,2013-05-16 06:21:00,
2013-05-15 23:26:00,52.7,-0.3,17.72,North,4,0.0,0.0,11,0.00,,,0.00,WeatherTracker,2013-05-16 06:26:00,
2013-05-15 23:36:00,52.2,-0.7,17.72,North,4,0.0,0.0,11,0.00,,,0.00,WeatherTracker,2013-05-16 06:36:00,
2013-05-15 23:41:00,51.8,-1.0,17.72,North,4,0.0,0.0,11,0.00,,,0.00,WeatherTracker,2013-05-16 06:41:00,
2013-05-15 23:51:00,51.4,-1.3,17.72,North,4,0.0,0.0,11,0.00,,,0.00,WeatherTracker,2013-05-16 06:51:00,